createdAt,value
2023-05-08T00:03:52.537Z,6.50
2023-05-08T00:06:54.746Z,6.80
2023-05-08T00:15:59.948Z,6.10
2023-05-08T00:25:06.015Z,6.60
2023-05-08T00:28:07.657Z,9.10
2023-05-08T00:34:11.063Z,7.30
2023-05-08T00:40:14.412Z,13.30
2023-05-08T00:43:16.459Z,7.30
2023-05-08T00:49:20.391Z,6.40
2023-05-08T00:52:22.225Z,6.60
2023-05-08T00:55:24.283Z,6.10
2023-05-08T00:58:27.518Z,7.50
2023-05-08T01:01:30.007Z,6.00
2023-05-08T01:04:31.772Z,6.20
2023-05-08T01:07:33.549Z,7.50
2023-05-08T01:11:23.750Z,7.10
2023-05-08T01:14:38.557Z,7.60
2023-05-08T01:17:48.751Z,6.30
2023-05-08T01:21:23.780Z,6.30
2023-05-08T01:25:03.034Z,6.00
2023-05-08T01:28:27.078Z,5.50
2023-05-08T01:32:02.685Z,6.30
2023-05-08T01:35:07.648Z,6.70
2023-05-08T01:38:22.068Z,6.50
2023-05-08T01:41:26.557Z,6.50
2023-05-08T01:44:37.807Z,6.40
2023-05-08T01:47:39.992Z,6.90
2023-05-08T01:50:51.549Z,6.40
2023-05-08T01:53:56.448Z,6.60
2023-05-08T01:56:58.594Z,6.70
2023-05-08T02:00:01.178Z,6.40
2023-05-08T02:03:06.677Z,6.50
2023-05-08T02:06:09.600Z,6.50
2023-05-08T02:09:12.140Z,7.00
2023-05-08T02:12:14.991Z,7.10
2023-05-08T02:15:17.483Z,6.90
2023-05-08T02:18:20.802Z,7.30
2023-05-08T02:21:23.833Z,6.70
2023-05-08T02:24:25.968Z,7.10
2023-05-08T02:27:28.486Z,7.30
2023-05-08T02:30:30.790Z,6.40
2023-05-08T02:33:32.633Z,6.80
2023-05-08T02:36:34.711Z,6.60
2023-05-08T02:39:36.642Z,7.20
2023-05-08T02:42:38.717Z,7.30
2023-05-08T02:45:45.653Z,6.40
2023-05-08T02:49:00.567Z,7.10
2023-05-08T02:52:19.528Z,6.50
2023-05-08T02:55:37.763Z,6.90
2023-05-08T02:59:22.575Z,7.40
2023-05-08T03:02:27.454Z,7.40
2023-05-08T03:05:34.218Z,6.50
2023-05-08T03:08:37.265Z,6.60
2023-05-08T03:11:41.258Z,6.80
2023-05-08T03:14:47.225Z,7.00
2023-05-08T03:17:50.312Z,6.90
2023-05-08T03:20:54.953Z,6.60
2023-05-08T03:23:58.331Z,7.20
2023-05-08T03:27:00.733Z,6.60
2023-05-08T03:30:02.556Z,6.40
2023-05-08T03:33:05.455Z,6.50
2023-05-08T03:36:07.300Z,6.30
2023-05-08T03:39:09.053Z,6.80
2023-05-08T03:42:11.435Z,6.80
2023-05-08T03:45:16.375Z,6.30
2023-05-08T03:48:19.518Z,6.50
2023-05-08T03:51:22.030Z,6.50
2023-05-08T03:54:23.785Z,7.00
2023-05-08T03:57:40.596Z,7.00
2023-05-08T04:00:48.338Z,6.80
2023-05-08T04:04:15.358Z,6.90
2023-05-08T04:07:32.056Z,6.40
2023-05-08T04:11:07.867Z,6.30
2023-05-08T04:14:14.334Z,6.60
2023-05-08T04:17:32.408Z,7.60
2023-05-08T04:20:34.677Z,6.90
2023-05-08T04:23:37.656Z,6.90
2023-05-08T04:26:40.142Z,6.30
2023-05-08T04:29:42.016Z,7.30
2023-05-08T04:32:46.698Z,6.30
2023-05-08T04:35:48.992Z,6.30
2023-05-08T04:38:50.762Z,6.90
2023-05-08T04:41:52.593Z,6.70
2023-05-08T04:44:54.822Z,6.60
2023-05-08T04:47:56.500Z,6.70
2023-05-08T04:50:58.227Z,6.50
2023-05-08T04:53:59.893Z,6.00
2023-05-08T05:06:07.270Z,7.20
2023-05-08T05:09:09.317Z,6.70
2023-05-08T05:12:11.075Z,7.40
2023-05-08T05:15:13.053Z,6.90
2023-05-08T05:18:15.009Z,6.90
2023-05-08T05:21:16.597Z,7.20
2023-05-08T05:27:21.345Z,5.90
2023-05-08T05:30:23.235Z,7.30
2023-05-08T05:33:25.013Z,6.30
2023-05-08T05:36:26.800Z,6.60
2023-05-08T05:39:28.418Z,6.60
2023-05-08T05:45:33.418Z,6.40
2023-05-08T05:48:36.078Z,6.60
2023-05-08T05:51:37.845Z,6.80
2023-05-08T05:54:39.871Z,6.90
2023-05-08T05:57:41.672Z,6.30
2023-05-08T06:00:43.999Z,5.80
2023-05-08T06:03:45.849Z,5.50
2023-05-08T06:06:50.715Z,6.20
2023-05-08T06:09:52.299Z,5.80
2023-05-08T06:15:55.780Z,6.20
2023-05-08T06:18:57.553Z,5.60
2023-05-08T06:21:59.201Z,6.30
2023-05-08T06:25:00.792Z,5.70
2023-05-08T06:28:02.507Z,8.80
2023-05-08T06:31:04.464Z,6.20
2023-05-08T06:34:06.223Z,6.30
2023-05-08T06:37:07.845Z,7.40
2023-05-08T06:40:15.598Z,5.20
2023-05-08T06:43:17.414Z,5.70
2023-05-08T06:46:19.009Z,6.00
2023-05-08T06:49:20.901Z,6.00
2023-05-08T06:52:22.542Z,5.10
2023-05-08T06:55:24.174Z,5.50
2023-05-08T06:58:25.884Z,5.10
2023-05-08T07:01:27.762Z,7.70
2023-05-08T07:04:32.044Z,9.00
2023-05-08T07:07:33.933Z,8.80
2023-05-08T07:10:35.758Z,5.30
2023-05-08T07:13:37.485Z,5.20
2023-05-08T07:16:39.384Z,7.40
2023-05-08T07:19:41.086Z,5.70
2023-05-08T07:22:42.706Z,5.30
2023-05-08T07:25:44.522Z,5.30
2023-05-08T07:28:46.310Z,6.70
2023-05-08T07:31:48.021Z,7.10
2023-05-08T07:34:49.956Z,6.30
2023-05-08T07:37:51.569Z,5.60
2023-05-08T07:40:53.249Z,5.00
2023-05-08T07:43:55.282Z,10.70
2023-05-08T07:46:57.056Z,5.00
2023-05-08T07:49:58.657Z,5.30
2023-05-08T07:53:00.282Z,6.40
2023-05-08T07:56:02.448Z,5.60
2023-05-08T07:59:04.085Z,6.30
2023-05-08T08:02:05.856Z,5.20
2023-05-08T08:05:07.924Z,5.10
2023-05-08T08:08:09.612Z,4.50
2023-05-08T08:11:11.431Z,11.00
2023-05-08T08:14:13.038Z,5.10
2023-05-08T08:17:14.864Z,5.10
2023-05-08T08:20:16.897Z,5.00
2023-05-08T08:23:18.877Z,5.80
2023-05-08T08:26:20.561Z,5.20
2023-05-08T08:29:22.297Z,4.70
2023-05-08T08:32:23.926Z,4.70
2023-05-08T08:35:25.550Z,7.40
2023-05-08T08:38:27.196Z,5.40
2023-05-08T08:41:29.046Z,5.40
2023-05-08T08:44:30.878Z,5.00
2023-05-08T08:47:36.276Z,7.40
2023-05-08T08:50:42.193Z,9.20
2023-05-08T08:53:46.795Z,6.10
2023-05-08T08:56:50.215Z,5.80
2023-05-08T08:59:53.431Z,5.30
2023-05-08T09:02:55.283Z,5.40
2023-05-08T09:05:59.751Z,7.80
2023-05-08T09:09:02.253Z,7.30
2023-05-08T09:12:04.272Z,6.00
2023-05-08T09:15:06.180Z,6.50
2023-05-08T09:18:07.860Z,5.80
2023-05-08T09:21:09.639Z,6.60
2023-05-08T09:24:11.425Z,6.40
2023-05-08T09:27:23.290Z,7.10
2023-05-08T09:30:25.101Z,5.80
2023-05-08T09:33:28.680Z,6.70
2023-05-08T09:36:31.240Z,6.20
2023-05-08T09:39:33.177Z,7.60
2023-05-08T09:42:38.593Z,6.60
2023-05-08T09:45:40.586Z,5.10
2023-05-08T09:48:42.688Z,5.60
2023-05-08T09:51:53.905Z,5.70
2023-05-08T09:55:07.223Z,5.30
2023-05-08T09:58:09.078Z,5.00
2023-05-08T10:01:29.177Z,6.80
2023-05-08T10:04:32.597Z,4.70
2023-05-08T10:07:35.792Z,5.20
2023-05-08T10:10:37.491Z,5.00
2023-05-08T10:13:39.237Z,5.40
2023-05-08T10:16:42.731Z,4.80
2023-05-08T10:19:46.203Z,6.20
2023-05-08T10:22:49.220Z,5.80
2023-05-08T10:25:56.453Z,7.80
2023-05-08T10:28:59.460Z,5.10
2023-05-08T10:32:03.094Z,6.60
2023-05-08T10:35:08.789Z,5.60
2023-05-08T10:38:11.367Z,5.60
2023-05-08T10:41:13.795Z,4.20
2023-05-08T10:44:15.458Z,6.80
2023-05-08T10:47:28.221Z,7.90
2023-05-08T10:50:58.015Z,8.20
2023-05-08T10:54:19.622Z,5.80
2023-05-08T10:57:21.193Z,5.70
2023-05-08T11:00:22.871Z,4.90
2023-05-08T11:03:32.864Z,4.80
2023-05-08T11:06:48.751Z,7.40
2023-05-08T11:09:50.756Z,7.40
2023-05-08T11:12:53.623Z,6.10
2023-05-08T11:15:55.371Z,6.60
2023-05-08T11:19:16.545Z,4.50
2023-05-08T11:25:41.894Z,3.80
2023-05-08T11:28:52.940Z,4.30
2023-05-08T11:31:54.644Z,4.10
2023-05-08T11:34:57.437Z,4.30
2023-05-08T11:38:20.467Z,3.80
2023-05-08T11:41:22.758Z,3.80
2023-05-08T11:44:26.047Z,4.40
2023-05-08T11:47:37.520Z,4.30
2023-05-08T11:50:39.827Z,3.90
2023-05-08T11:53:41.627Z,3.80
2023-05-08T11:56:44.789Z,4.00
2023-05-08T11:59:51.098Z,4.30
2023-05-08T12:02:52.883Z,4.20
2023-05-08T12:05:59.679Z,4.90
2023-05-08T12:09:02.101Z,4.40
2023-05-08T12:12:03.989Z,4.50
2023-05-08T12:15:10.490Z,4.10
2023-05-08T12:18:12.411Z,4.10
2023-05-08T12:21:14.079Z,4.30
2023-05-08T12:24:16.952Z,3.90
2023-05-08T12:27:19.358Z,4.30
2023-05-08T12:30:21.254Z,3.70
2023-05-08T12:33:23.471Z,3.90
2023-05-08T12:36:25.150Z,4.00
2023-05-08T12:39:26.812Z,6.20
2023-05-08T12:42:53.962Z,4.00
2023-05-08T12:45:55.673Z,3.90
2023-05-08T12:49:01.754Z,4.10
2023-05-08T12:52:13.434Z,3.80
2023-05-08T12:55:29.293Z,4.70
2023-05-08T12:58:32.917Z,4.40
2023-05-08T13:01:34.621Z,4.00
2023-05-08T13:04:39.722Z,3.60
2023-05-08T13:07:41.491Z,7.00
2023-05-08T13:10:56.425Z,11.70
2023-05-08T13:13:58.201Z,8.10
2023-05-08T13:16:59.934Z,6.90
2023-05-08T13:20:02.984Z,5.70
2023-05-08T13:23:06.637Z,4.40
2023-05-08T13:26:08.338Z,4.20
2023-05-08T13:29:10.160Z,4.40
2023-05-08T13:32:12.059Z,3.80
2023-05-08T13:35:14.456Z,3.90
2023-05-08T13:38:16.588Z,3.60
2023-05-08T13:41:18.303Z,3.90
2023-05-08T13:44:20.081Z,3.60
2023-05-08T13:47:21.708Z,3.90
2023-05-08T13:50:23.481Z,4.80
2023-05-08T13:53:25.069Z,4.60
2023-05-08T13:56:26.742Z,4.00
2023-05-08T13:59:28.789Z,4.40
2023-05-08T14:02:30.653Z,4.10
2023-05-08T14:05:32.592Z,3.90
2023-05-08T14:08:35.231Z,3.60
2023-05-08T14:11:39.321Z,3.60
2023-05-08T14:14:40.942Z,3.90
2023-05-08T14:17:42.749Z,3.70
2023-05-08T14:20:48.971Z,4.20
2023-05-08T14:23:53.874Z,4.20
2023-05-08T14:26:55.526Z,4.30
2023-05-08T14:29:57.177Z,4.40
2023-05-08T14:32:58.876Z,3.90
2023-05-08T14:36:00.663Z,4.10
2023-05-08T14:39:03.242Z,4.20
2023-05-08T14:42:22.185Z,4.10
2023-05-08T14:45:25.188Z,4.10
2023-05-08T14:48:26.800Z,4.10
2023-05-08T14:51:28.545Z,4.00
2023-05-08T14:54:30.401Z,3.80
2023-05-08T14:57:32.194Z,3.70
2023-05-08T15:00:33.883Z,3.80
2023-05-08T15:03:35.919Z,3.90
2023-05-08T15:06:38.200Z,3.90
2023-05-08T15:09:40.002Z,4.30
2023-05-08T15:12:41.682Z,4.30
2023-05-08T15:15:43.421Z,4.10
2023-05-08T15:18:45.198Z,4.20
2023-05-08T15:21:47.055Z,4.00
2023-05-08T15:24:48.637Z,5.40
2023-05-08T15:27:50.286Z,4.60
2023-05-08T15:30:51.968Z,4.50
2023-05-08T15:33:53.669Z,4.20
2023-05-08T15:36:55.307Z,4.20
2023-05-08T15:39:56.833Z,5.40
2023-05-08T15:42:58.508Z,4.50
2023-05-08T15:46:00.465Z,4.90
2023-05-08T15:49:03.096Z,5.40
2023-05-08T15:52:04.882Z,5.10
2023-05-08T15:55:06.741Z,5.40
2023-05-08T15:58:08.432Z,5.70
2023-05-08T16:01:10.189Z,5.30
2023-05-08T16:04:12.244Z,10.00
2023-05-08T16:07:13.867Z,5.60
2023-05-08T16:10:15.636Z,13.40
2023-05-08T16:13:17.271Z,6.00
2023-05-08T16:16:19.032Z,4.70
2023-05-08T16:19:20.715Z,4.20
2023-05-08T16:22:22.306Z,4.10
2023-05-08T16:25:24.475Z,4.50
2023-05-08T16:28:26.622Z,4.50
2023-05-08T16:31:28.266Z,4.70
2023-05-08T16:34:30.418Z,4.40
2023-05-08T16:37:32.122Z,5.00
2023-05-08T16:40:33.750Z,5.40
2023-05-08T16:43:35.581Z,4.70
2023-05-08T16:46:37.205Z,4.60
2023-05-08T16:49:38.857Z,4.50
2023-05-08T16:52:40.736Z,4.70
2023-05-08T16:55:42.455Z,5.10
2023-05-08T16:58:44.191Z,4.90
2023-05-08T17:01:45.935Z,5.20
2023-05-08T17:04:48.031Z,6.60
2023-05-08T17:07:49.923Z,5.50
2023-05-08T17:10:51.632Z,4.90
2023-05-08T17:13:53.245Z,6.00
2023-05-08T17:16:55.005Z,6.70
2023-05-08T17:19:56.656Z,4.70
2023-05-08T17:22:58.265Z,4.90
2023-05-08T17:26:00.488Z,4.40
2023-05-08T17:29:02.470Z,5.30
2023-05-08T17:32:04.643Z,4.90
2023-05-08T17:35:06.741Z,5.40
2023-05-08T17:38:08.406Z,5.50
2023-05-08T17:41:10.120Z,5.60
2023-05-08T17:44:12.882Z,6.20
2023-05-08T17:47:14.620Z,7.10
2023-05-08T17:50:16.325Z,7.00
2023-05-08T17:53:18.022Z,17.60
2023-05-08T17:56:19.605Z,12.20
2023-05-08T17:59:21.241Z,14.10
2023-05-08T18:02:23.040Z,15.10
2023-05-08T18:05:24.819Z,17.00
2023-05-08T18:08:26.707Z,17.50
2023-05-08T18:11:28.444Z,16.50
2023-05-08T18:14:31.358Z,14.70
2023-05-08T18:17:33.085Z,15.90
2023-05-08T18:20:34.992Z,16.60
2023-05-08T18:23:37.114Z,15.90
2023-05-08T18:26:38.806Z,16.70
2023-05-08T18:29:40.430Z,17.40
2023-05-08T18:35:43.601Z,15.00
2023-05-08T18:38:45.525Z,13.10
2023-05-08T18:41:47.242Z,11.60
2023-05-08T18:44:48.877Z,10.80
2023-05-08T18:50:52.120Z,12.80
2023-05-08T18:53:53.773Z,12.40
2023-05-08T18:56:55.575Z,11.00
2023-05-08T18:59:57.231Z,9.90
2023-05-08T19:06:00.918Z,10.10
2023-05-08T19:09:02.709Z,12.20
2023-05-08T19:12:04.461Z,14.50
2023-05-08T19:15:06.594Z,13.00
2023-05-08T19:18:08.295Z,9.90
2023-05-08T19:21:09.969Z,9.50
2023-05-08T19:24:11.566Z,11.00
2023-05-08T19:30:15.131Z,11.20
2023-05-08T19:33:17.076Z,11.60
2023-05-08T19:39:20.420Z,10.10
2023-05-08T19:42:22.131Z,10.50
2023-05-08T19:45:23.812Z,10.70
2023-05-08T19:48:25.527Z,10.20
2023-05-08T19:51:27.243Z,10.70
2023-05-08T19:57:30.885Z,11.10
2023-05-08T20:03:34.407Z,10.80
2023-05-08T20:06:36.163Z,11.80
2023-05-08T20:12:39.508Z,12.00
2023-05-08T20:15:41.535Z,12.00
2023-05-08T20:18:43.207Z,12.60
2023-05-08T20:24:46.490Z,13.20
2023-05-08T20:27:48.180Z,10.90
2023-05-08T20:33:52.403Z,8.60
2023-05-08T20:39:55.594Z,8.30
2023-05-08T20:42:57.225Z,13.40
2023-05-08T20:49:00.660Z,15.90
2023-05-08T20:55:04.045Z,13.50
2023-05-08T20:58:05.738Z,15.40
2023-05-08T21:01:07.441Z,17.00
2023-05-08T21:04:09.229Z,16.10
2023-05-08T21:07:10.892Z,15.40
2023-05-08T21:16:16.336Z,12.50
2023-05-08T21:19:17.970Z,13.90
2023-05-08T21:22:19.574Z,15.80
2023-05-08T21:25:21.384Z,16.10
2023-05-08T21:31:24.650Z,15.10
2023-05-08T21:40:29.881Z,10.40
2023-05-08T21:43:32.494Z,13.40
2023-05-08T21:49:35.753Z,11.70
2023-05-08T21:52:37.438Z,12.50
2023-05-08T21:58:40.574Z,14.40
2023-05-08T22:04:43.930Z,14.90
2023-05-08T22:07:45.912Z,15.00
2023-05-08T22:13:49.163Z,13.50
2023-05-08T22:16:50.767Z,13.70
2023-05-08T22:22:56.532Z,13.00
2023-05-08T22:28:59.799Z,13.00
2023-05-08T22:35:03.430Z,13.40
2023-05-08T22:38:05.199Z,13.70
2023-05-08T22:44:08.583Z,9.60
2023-05-08T22:50:12.258Z,8.80
2023-05-08T22:53:13.920Z,9.90
2023-05-08T22:56:15.550Z,10.00
2023-05-08T22:59:17.204Z,9.80
2023-05-08T23:02:18.928Z,10.80
2023-05-08T23:08:22.191Z,12.10
2023-05-08T23:11:25.064Z,13.30
2023-05-08T23:14:26.882Z,13.10
2023-05-08T23:17:28.577Z,13.70
2023-05-08T23:20:30.381Z,14.20
2023-05-08T23:26:33.561Z,12.60
2023-05-08T23:29:35.232Z,13.70
2023-05-08T23:32:36.832Z,13.70
2023-05-08T23:35:38.495Z,12.40
2023-05-08T23:38:40.226Z,12.60
2023-05-08T23:41:42.005Z,12.90
2023-05-08T23:44:43.648Z,12.70
2023-05-08T23:47:45.375Z,12.10
2023-05-08T23:53:48.599Z,13.70
2023-05-08T23:56:50.252Z,15.40
